Pagrindinis puslapis
METAR-TAF:

METAR-TAF

Oro uostai :

Derbis, Australija

platuma: 17-22-12S, ilguma: 123-39-38E, Aukštis: 7 m

Dabartinis oras

Ataskaita buvo paskelbta 1 valandą ir 10 minutes, ne 00:00 UTC
Vėjas 10 kt iš Pietų/Pietryčių
Temperatūra 26°C
Drėgmė 79%
Slėgis 1006 hPa
Matomumas 10 km arba daugiau

METAR: YDBY 260000Z AUTO 16010KT 9999 // NCD 26/22 Q1006

Laikas: 09:10 (01:10 UTC)


TAF: trūkstamas

Orai ataskaitas ir orų prognozės (METAR, TAF).

turimą stotys yra geltonos ir raudonos taškus žemėlapyje.

Perkelti pele per norėdami pamatyti stoties vardą.

Tada spustelėkite, norėdami matyti oro stebėjimo ir prognozės.

Norėdami pakeisti žemėlapį: spustelėkite ant žalios mygtukų su juodo kryžiaus žemyn,; žalią mygtuką su brūkšneliu, jei norite nutolinti; arba žalių rodyklių gretimoms žemėlapius.


METAR-TAF: